Time;durP1;ratioP1;P1;durP2;ratioP2;P2;SDS_P1;SDS_P2;PMS_P1;PMS_P2;Temp;Humidity;BMP_temperature;BMP_pressure;BME280_temperature;BME280_humidity;BME280_pressure;Samples;Min_cycle;Max_cycle;Signal;HPM_P1;HPM_P2
2023/01/13 00:01:43;;;;;;;2.75;1.00;;;;;;;8.97;100.00;99496.41;5050750;28;20084;-65
2023/01/13 00:04:10;;;;;;;6.40;1.63;;;;;;;8.77;100.00;99478.38;5050851;28;20501;-65
2023/01/13 00:06:35;;;;;;;9.63;1.52;;;;;;;8.88;100.00;99496.09;5050552;28;20683;-65
2023/01/13 00:09:00;;;;;;;4.85;1.35;;;;;;;8.82;100.00;99494.66;5049687;28;20078;-65
2023/01/13 00:11:26;;;;;;;6.13;1.67;;;;;;;8.92;100.00;99503.69;5049730;28;20029;-65
2023/01/13 00:13:52;;;;;;;3.92;1.23;;;;;;;8.92;100.00;99502.84;5049980;28;20391;-65
2023/01/13 00:16:18;;;;;;;3.08;0.73;;;;;;;8.82;100.00;99494.66;5050297;28;20071;-65
2023/01/13 00:18:44;;;;;;;6.18;1.55;;;;;;;8.86;100.00;99511.91;5049463;28;20108;-66
2023/01/13 00:21:11;;;;;;;8.20;1.80;;;;;;;8.86;100.00;99511.03;5050267;28;20554;-65
2023/01/13 00:23:36;;;;;;;6.15;1.60;;;;;;;8.84;100.00;99512.91;5049977;28;20025;-66
2023/01/13 00:26:04;;;;;;;6.47;1.92;;;;;;;8.91;100.00;99511.63;5050136;28;20086;-65
2023/01/13 00:28:30;;;;;;;3.40;1.17;;;;;;;8.85;100.00;99485.81;5051799;28;20029;-65
2023/01/13 00:30:57;;;;;;;4.30;1.50;;;;;;;8.89;100.00;99496.00;5051608;28;20781;-65
2023/01/13 00:33:23;;;;;;;3.83;1.75;;;;;;;8.81;100.00;99493.00;5049662;28;20040;-66
2023/01/13 00:35:56;;;;;;;8.63;1.92;;;;;;;8.86;100.00;99511.91;5033418;28;20029;-66
2023/01/13 00:38:22;;;;;;;15.27;2.13;;;;;;;8.73;100.00;99501.28;5049959;28;20056;-66
2023/01/13 00:41:01;;;;;;;8.77;2.15;;;;;;;8.75;100.00;99516.94;5047442;28;20553;-65
2023/01/13 00:43:28;;;;;;;8.05;2.30;;;;;;;8.70;100.00;99524.19;5023383;28;20033;-65
2023/01/13 00:45:54;;;;;;;5.78;1.83;;;;;;;8.69;100.00;99517.25;5050291;28;20529;-65
2023/01/13 00:48:21;;;;;;;5.80;2.00;;;;;;;8.39;100.00;99461.38;5050172;28;20037;-66
2023/01/13 00:50:46;;;;;;;5.93;2.13;;;;;;;8.60;100.00;99488.97;5049825;28;20032;-65
2023/01/13 00:53:12;;;;;;;6.22;2.15;;;;;;;8.63;100.00;99488.78;5047989;28;20411;-65
2023/01/13 00:55:38;;;;;;;6.18;2.00;;;;;;;8.58;100.00;99485.63;5049625;28;20036;-65
2023/01/13 00:58:03;;;;;;;9.23;2.75;;;;;;;8.45;100.00;99458.44;5047580;28;20025;-66
2023/01/13 01:00:30;;;;;;;11.27;2.65;;;;;;;8.57;100.00;99466.44;5050262;28;20075;-65
2023/01/13 01:02:55;;;;;;;10.43;2.60;;;;;;;8.49;100.00;99446.84;5050415;28;20825;-65
2023/01/13 01:05:21;;;;;;;7.63;2.20;;;;;;;8.50;100.00;99464.25;5049323;28;20028;-65
2023/01/13 01:07:46;;;;;;;7.30;2.17;;;;;;;8.51;100.00;99465.94;5045205;28;20032;-66
2023/01/13 01:10:12;;;;;;;5.13;1.90;;;;;;;8.43;100.00;99463.75;5049814;28;20025;-66
2023/01/13 01:12:37;;;;;;;7.28;2.28;;;;;;;8.31;100.00;99453.13;5050616;28;20083;-66
2023/01/13 01:15:06;;;;;;;14.82;2.78;;;;;;;8.40;100.00;99489.25;5050010;28;20570;-65
2023/01/13 01:17:31;;;;;;;10.77;2.28;;;;;;;8.33;100.00;99485.28;5049959;28;20025;-66
2023/01/13 01:19:57;;;;;;;7.63;2.38;;;;;;;8.19;100.00;99468.53;5045657;28;20017;-66
2023/01/13 01:22:22;;;;;;;6.78;2.53;;;;;;;8.26;100.00;99476.06;5051203;28;20036;-66
2023/01/13 01:24:48;;;;;;;10.73;2.70;;;;;;;8.29;100.00;99476.75;5050202;28;20111;-66
2023/01/13 01:27:13;;;;;;;9.00;2.60;;;;;;;8.21;100.00;99471.91;5033114;28;20051;-66
2023/01/13 01:29:38;;;;;;;9.00;2.60;;;;;;;8.20;100.00;99487.72;5050344;28;20021;-66
2023/01/13 01:32:04;;;;;;;11.40;2.70;;;;;;;8.23;100.00;99488.38;5053858;28;20104;-66
2023/01/13 01:34:29;;;;;;;5.57;2.38;;;;;;;8.25;100.00;99485.66;5053204;28;20032;-65
2023/01/13 01:36:55;;;;;;;11.00;2.83;;;;;;;8.21;100.00;99500.69;5053443;28;20044;-67
2023/01/13 01:39:20;;;;;;;8.20;2.38;;;;;;;8.16;100.00;99512.34;5052388;28;20086;-66
2023/01/13 01:43:58;;;;;;;9.95;3.08;;;;;;;8.16;100.00;99507.97;5035465;28;20041;-66
2023/01/13 01:44:40;;;;;;;7.60;2.55;;;;;;;8.10;100.00;99512.69;5038176;28;20144;-66
2023/01/13 01:47:12;;;;;;;13.55;3.05;;;;;;;7.97;100.00;99502.06;5052382;28;20052;-66
2023/01/13 01:49:38;;;;;;;6.95;2.70;;;;;;;7.92;100.00;99509.28;5052027;28;20029;-66
2023/01/13 01:52:25;;;;;;;6.60;2.63;;;;;;;7.84;100.00;99511.44;5034050;28;20044;-66
2023/01/13 01:54:53;;;;;;;12.02;2.45;;;;;;;7.80;100.00;99515.19;5034244;28;20455;-66
2023/01/13 01:57:23;;;;;;;6.40;2.25;;;;;;;7.75;100.00;99522.41;5051517;28;20025;-66
2023/01/13 01:59:49;;;;;;;6.93;2.22;;;;;;;7.54;100.00;99513.91;5052513;28;20549;-66
2023/01/13 02:02:14;;;;;;;6.03;2.15;;;;;;;7.52;100.00;99513.16;5030641;28;20029;-66
2023/01/13 02:04:49;;;;;;;8.13;2.75;;;;;;;7.48;100.00;99509.00;5057170;28;20098;-66
2023/01/13 02:07:19;;;;;;;10.18;2.45;;;;;;;7.46;100.00;99510.03;5051626;28;20032;-66
2023/01/13 02:09:44;;;;;;;9.35;2.30;;;;;;;7.40;100.00;99498.09;5067328;28;20391;-66
2023/01/13 02:12:28;;;;;;;9.48;2.15;;;;;;;7.43;100.00;99510.19;5052215;28;20021;-66
2023/01/13 02:14:55;;;;;;;9.93;1.92;;;;;;;7.34;100.00;99506.25;5052114;28;20033;-66
2023/01/13 02:17:20;;;;;;;6.32;2.08;;;;;;;7.36;100.00;99508.81;5068203;28;20117;-66
2023/01/13 02:20:04;;;;;;;6.88;1.98;;;;;;;7.32;100.00;99512.50;5052449;28;20112;-66
2023/01/13 02:22:44;;;;;;;6.57;2.07;;;;;;;7.34;100.00;99502.81;5043808;28;20494;-66
2023/01/13 02:25:21;;;;;;;6.20;2.08;;;;;;;7.29;100.00;99494.38;5051846;28;20043;-66
2023/01/13 02:28:05;;;;;;;5.28;1.77;;;;;;;7.25;100.00;99495.44;5013444;28;20060;-66
2023/01/13 02:33:38;;;;;;;5.90;2.33;;;;;;;7.15;100.00;99511.59;5036965;28;20332;-66
2023/01/13 02:36:38;;;;;;;10.40;2.35;;;;;;;7.02;100.00;99483.56;5068330;28;20143;-66
2023/01/13 02:39:15;;;;;;;5.93;2.63;;;;;;;7.05;100.00;99494.69;5039310;28;20131;-66
2023/01/13 02:44:53;;;;;;;5.15;2.28;;;;;;;7.00;100.00;99485.38;5020739;28;20052;-66
2023/01/13 02:47:21;;;;;;;5.75;1.98;;;;;;;7.03;100.00;99495.69;5051737;28;20103;-66
2023/01/13 02:49:59;;;;;;;14.65;3.28;;;;;;;6.95;100.00;99477.81;5034681;28;20029;-66
2023/01/13 02:52:30;;;;;;;10.02;2.65;;;;;;;6.95;100.00;99477.81;5067680;28;20039;-66
2023/01/13 02:55:01;;;;;;;7.88;2.30;;;;;;;6.84;100.00;99459.22;5050397;28;20029;-66
2023/01/13 02:57:28;;;;;;;10.45;2.28;;;;;;;6.90;100.00;99469.34;5029183;28;20025;-66
2023/01/13 02:59:54;;;;;;;6.95;2.38;;;;;;;6.95;100.00;99483.03;5034211;28;20099;-66
2023/01/13 03:02:20;;;;;;;13.38;3.13;;;;;;;7.05;100.00;99501.69;5052655;28;20399;-66
2023/01/13 03:04:45;;;;;;;9.73;2.58;;;;;;;7.08;100.00;99489.31;5052462;28;20028;-66
2023/01/13 03:07:37;;;;;;;12.48;2.90;;;;;;;7.12;100.00;99488.25;5051994;28;20025;-66
2023/01/13 03:10:25;;;;;;;9.32;3.38;;;;;;;7.20;100.00;99486.06;5042743;28;20580;-66
2023/01/13 03:13:11;;;;;;;8.63;2.33;;;;;;;7.01;100.00;99472.25;5051338;28;20029;-65
2023/01/13 03:15:47;;;;;;;5.35;2.28;;;;;;;7.12;100.00;99493.47;5052582;28;20041;-65
2023/01/13 03:18:43;;;;;;;14.27;3.20;;;;;;;7.04;100.00;99474.72;5021217;28;20028;-66
2023/01/13 03:21:24;;;;;;;10.23;3.45;;;;;;;7.08;100.00;99472.78;5040619;28;20433;-65
2023/01/13 03:24:02;;;;;;;10.18;3.55;;;;;;;7.07;100.00;99479.78;5032841;28;20106;-65
2023/01/13 03:26:43;;;;;;;9.23;3.15;;;;;;;7.06;100.00;99490.31;5051272;28;20080;-66
2023/01/13 03:29:23;;;;;;;9.85;3.38;;;;;;;7.08;100.00;99494.53;5050167;28;20025;-66
2023/01/13 03:32:03;;;;;;;13.80;3.33;;;;;;;7.04;100.00;99493.00;5034745;28;20025;-65
2023/01/13 03:34:48;;;;;;;10.10;3.35;;;;;;;7.03;100.00;99485.25;5033837;28;20078;-66
2023/01/13 03:37:15;;;;;;;11.85;3.65;;;;;;;7.02;100.00;99479.19;5051229;28;20104;-66
2023/01/13 03:39:46;;;;;;;13.77;2.70;;;;;;;7.04;100.00;99477.31;5033766;28;20479;-66
2023/01/13 03:42:18;;;;;;;14.57;4.07;;;;;;;7.16;100.00;99492.38;5033252;28;20029;-65
2023/01/13 03:44:52;;;;;;;10.25;3.58;;;;;;;7.20;100.00;99482.59;5051231;28;20024;-66
2023/01/13 03:47:17;;;;;;;12.37;4.17;;;;;;;7.31;100.00;99485.53;5032839;28;20366;-66
2023/01/13 03:50:05;;;;;;;21.02;4.75;;;;;;;7.31;100.00;99495.97;5066308;28;20033;-66
2023/01/13 03:52:34;;;;;;;17.05;3.72;;;;;;;7.33;100.00;99482.84;5051382;28;20129;-66
2023/01/13 03:55:11;;;;;;;13.48;3.25;;;;;;;7.47;100.00;99482.97;5033163;28;20029;-65
2023/01/13 03:57:42;;;;;;;13.73;3.83;;;;;;;7.42;100.00;99474.53;5051001;28;20096;-66
2023/01/13 04:00:09;;;;;;;15.20;3.97;;;;;;;7.56;100.00;99485.09;5033569;28;20036;-65
2023/01/13 04:02:50;;;;;;;12.73;3.85;;;;;;;7.36;100.00;99440.88;5032623;28;20040;-66
2023/01/13 04:05:17;;;;;;;16.15;4.80;;;;;;;7.59;100.00;99469.25;5033161;28;20120;-65
2023/01/13 04:07:45;;;;;;;14.07;4.15;;;;;;;7.58;100.00;99478.84;5032974;28;20021;-66
2023/01/13 04:10:13;;;;;;;11.57;3.55;;;;;;;7.67;100.00;99480.97;5049018;28;20039;-66
2023/01/13 04:12:59;;;;;;;9.57;3.72;;;;;;;7.65;100.00;99469.78;5023120;28;20486;-65
2023/01/13 04:15:47;;;;;;;17.48;4.03;;;;;;;7.38;100.00;99423.34;5034249;28;20052;-65
2023/01/13 04:18:24;;;;;;;9.00;4.07;;;;;;;7.78;100.00;99483.03;5050119;28;20495;-66
2023/01/13 04:20:51;;;;;;;13.23;4.15;;;;;;;7.74;100.00;99497.19;5050377;28;20092;-66
2023/01/13 04:23:17;;;;;;;16.30;3.80;;;;;;;7.71;100.00;99498.19;5032633;28;20037;-66
2023/01/13 04:25:44;;;;;;;13.40;3.45;;;;;;;7.73;100.00;99487.66;5032250;28;20040;-66
2023/01/13 04:28:09;;;;;;;10.35;4.07;;;;;;;7.67;100.00;99486.22;5065651;28;20446;-65
2023/01/13 04:30:35;;;;;;;21.00;3.63;;;;;;;7.29;100.00;99429.91;5049872;28;20108;-65
2023/01/13 04:33:02;;;;;;;13.73;3.80;;;;;;;7.56;100.00;99487.72;5049356;28;20033;-66
2023/01/13 04:35:28;;;;;;;17.20;4.50;;;;;;;7.51;100.00;99474.88;5050208;28;20032;-66
2023/01/13 04:37:53;;;;;;;10.57;3.53;;;;;;;7.44;100.00;99486.56;5031445;28;20082;-66
2023/01/13 04:40:19;;;;;;;18.23;3.85;;;;;;;7.35;100.00;99467.91;5049722;28;20039;-65
2023/01/13 04:42:44;;;;;;;14.20;3.40;;;;;;;7.28;100.00;99474.38;5050197;28;20095;-65
2023/01/13 04:45:10;;;;;;;10.90;3.55;;;;;;;7.14;100.00;99457.66;5066161;28;20043;-65
2023/01/13 04:47:35;;;;;;;10.27;2.97;;;;;;;7.29;100.00;99476.09;5050511;28;20041;-65
2023/01/13 04:50:01;;;;;;;12.32;3.67;;;;;;;7.30;100.00;99462.09;5050336;28;20032;-66
2023/01/13 04:52:26;;;;;;;18.30;3.70;;;;;;;7.36;100.00;99465.25;5050180;28;20128;-65
2023/01/13 04:54:52;;;;;;;11.35;3.78;;;;;;;7.34;100.00;99461.00;5050080;28;20040;-66
2023/01/13 04:57:17;;;;;;;9.55;3.25;;;;;;;7.32;100.00;99450.63;5049875;28;20037;-65
2023/01/13 04:59:42;;;;;;;17.55;3.35;;;;;;;7.40;100.00;99463.31;5048708;28;20428;-66
2023/01/13 05:02:08;;;;;;;10.80;3.38;;;;;;;7.40;100.00;99463.31;5049220;28;20021;-66
2023/01/13 05:04:34;;;;;;;7.78;3.00;;;;;;;7.34;100.00;99453.16;5049157;28;20029;-65
2023/01/13 05:06:59;;;;;;;10.38;3.10;;;;;;;7.27;100.00;99447.41;5052836;28;20100;-65
2023/01/13 05:09:25;;;;;;;10.50;3.03;;;;;;;7.40;100.00;99466.75;5069217;28;20111;-65
2023/01/13 05:17:21;;;;;;;12.75;3.78;;;;;;;7.42;100.00;99482.34;5045598;28;20112;-67
2023/01/13 05:19:47;;;;;;;15.05;4.30;;;;;;;7.39;100.00;99477.28;5036216;28;20392;-67
2023/01/13 05:27:40;;;;;;;8.02;3.22;;;;;;;7.47;100.00;99473.34;5050393;28;20102;-66
2023/01/13 05:30:06;;;;;;;11.07;3.55;;;;;;;7.54;100.00;99484.31;5053310;28;20029;-66
2023/01/13 05:32:31;;;;;;;9.77;3.05;;;;;;;7.38;100.00;99454.69;5053237;28;20040;-66
2023/01/13 05:34:56;;;;;;;13.02;2.78;;;;;;;7.58;100.00;99475.41;5053734;28;20543;-66
2023/01/13 05:37:23;;;;;;;10.80;3.20;;;;;;;7.62;100.00;99490.00;5065382;28;20099;-66
2023/01/13 05:45:16;;;;;;;11.65;3.25;;;;;;;7.67;100.00;99504.50;5039566;28;20418;-66
2023/01/13 05:47:42;;;;;;;12.88;3.15;;;;;;;7.67;100.00;99499.28;5036381;28;20032;-66
2023/01/13 05:50:08;;;;;;;11.25;3.50;;;;;;;7.69;100.00;99507.91;5053503;28;20108;-66
2023/01/13 05:52:33;;;;;;;7.60;2.95;;;;;;;7.66;100.00;99497.59;5045243;28;20059;-66
2023/01/13 05:54:58;;;;;;;9.10;2.75;;;;;;;7.63;100.00;99496.94;5035280;28;20032;-66
2023/01/13 05:57:24;;;;;;;9.63;2.88;;;;;;;7.47;100.00;99475.13;5053678;28;20029;-66
2023/01/13 05:59:49;;;;;;;8.07;3.50;;;;;;;7.59;100.00;99485.78;5032034;28;20060;-66
2023/01/13 06:02:15;;;;;;;10.32;3.35;;;;;;;7.51;100.00;99485.34;5053117;28;20037;-66
2023/01/13 06:04:40;;;;;;;9.40;2.53;;;;;;;7.48;100.00;99502.94;5052234;28;20075;-67
2023/01/13 06:07:05;;;;;;;9.13;3.25;;;;;;;7.33;100.00;99494.16;5052322;28;20036;-66
2023/01/13 06:09:31;;;;;;;7.55;2.85;;;;;;;7.36;100.00;99514.03;5052794;28;20033;-66
2023/01/13 06:11:56;;;;;;;7.30;3.15;;;;;;;7.28;100.00;99516.19;5046638;28;20029;-66
2023/01/13 06:14:22;;;;;;;6.68;2.35;;;;;;;7.13;100.00;99510.81;5053070;28;20033;-66
2023/01/13 06:16:47;;;;;;;17.98;2.55;;;;;;;7.27;100.00;99531.00;5048264;28;20800;-66
2023/01/13 06:19:12;;;;;;;10.70;4.07;;;;;;;7.28;100.00;99537.94;5052433;28;20028;-66
2023/01/13 06:21:38;;;;;;;13.90;5.07;;;;;;;7.20;100.00;99534.84;5034943;28;20037;-66
2023/01/13 06:24:05;;;;;;;14.63;3.97;;;;;;;6.84;100.00;99495.75;5053574;28;20035;-67
2023/01/13 06:26:39;;;;;;;9.82;3.60;;;;;;;7.05;100.00;99543.47;5053169;28;20041;-67
2023/01/13 06:29:05;;;;;;;;;;;;;;;7.09;100.00;99558.06;5053630;28;20498;-66
2023/01/13 06:31:31;;;;;;;14.00;3.45;;;;;;;7.05;100.00;99556.53;5056296;28;19913;-66
2023/01/13 06:33:59;;;;;;;9.50;2.80;;;;;;;6.92;100.00;99558.91;5052319;28;20025;-66
2023/01/13 06:36:29;;;;;;;9.98;3.50;;;;;;;6.97;100.00;99571.72;5052594;28;20383;-66
2023/01/13 06:38:56;;;;;;;8.57;2.92;;;;;;;6.81;100.00;99549.88;5052979;28;20083;-66
2023/01/13 06:43:13;;;;;;;13.50;3.30;;;;;;;6.87;100.00;99557.41;5051098;28;20040;-66
2023/01/13 06:44:08;;;;;;;15.93;3.95;;;;;;;6.88;100.00;99553.91;5053442;28;20033;-66
2023/01/13 06:46:34;;;;;;;11.95;2.67;;;;;;;6.91;100.00;99554.59;5035985;28;20364;-66
2023/01/13 06:48:59;;;;;;;14.10;3.13;;;;;;;6.96;100.00;99551.78;5035564;28;20025;-66
2023/01/13 06:51:25;;;;;;;10.98;2.67;;;;;;;6.98;100.00;99547.31;5051742;28;20472;-66
2023/01/13 06:53:50;;;;;;;13.43;2.63;;;;;;;6.96;100.00;99541.31;5053203;28;20475;-66
2023/01/13 06:56:16;;;;;;;13.02;3.65;;;;;;;6.88;100.00;99540.84;5036161;28;20029;-66
2023/01/13 06:58:42;;;;;;;6.78;2.55;;;;;;;6.91;100.00;99549.38;5050647;28;20615;-66
2023/01/13 07:01:07;;;;;;;11.70;3.33;;;;;;;7.02;100.00;99554.91;5052314;28;20025;-66
2023/01/13 07:03:32;;;;;;;8.45;2.53;;;;;;;6.99;100.00;99552.47;5035014;28;20087;-66
2023/01/13 07:05:58;;;;;;;7.85;2.75;;;;;;;6.96;100.00;99555.19;5053098;28;20460;-65
2023/01/13 07:08:24;;;;;;;9.05;2.65;;;;;;;6.72;100.00;99519.88;5052353;28;20021;-65
2023/01/13 07:10:50;;;;;;;8.98;3.15;;;;;;;6.90;100.00;99547.66;5052717;28;20029;-65
2023/01/13 07:16:01;;;;;;;5.40;2.80;;;;;;;6.84;100.00;99542.75;5036141;28;20071;-66
2023/01/13 07:18:30;;;;;;;9.20;2.97;;;;;;;6.55;100.00;99525.06;5024034;28;20025;-66
2023/01/13 07:20:57;;;;;;;11.18;2.80;;;;;;;6.84;100.00;99565.41;5050619;28;20056;-66
2023/01/13 07:23:23;;;;;;;5.32;2.17;;;;;;;6.72;100.00;99556.41;5051382;28;20090;-65
2023/01/13 07:25:49;;;;;;;7.55;2.72;;;;;;;6.73;100.00;99581.56;5034054;28;20108;-65
2023/01/13 07:28:14;;;;;;;12.82;3.38;;;;;;;6.57;100.00;99559.75;5051499;28;20532;-66
2023/01/13 07:30:40;;;;;;;13.50;3.75;;;;;;;6.67;100.00;99574.03;5051560;28;20060;-66
2023/01/13 07:33:05;;;;;;;9.98;3.65;;;;;;;6.62;100.00;99574.25;5052408;28;20017;-65
2023/01/13 07:35:31;;;;;;;7.57;2.83;;;;;;;6.71;100.00;99579.97;5051636;28;20029;-66
2023/01/13 07:37:56;;;;;;;11.82;3.97;;;;;;;6.65;100.00;99573.28;5052956;28;20060;-66
2023/01/13 07:40:21;;;;;;;10.65;3.08;;;;;;;6.60;100.00;99575.25;5053006;28;20037;-66
2023/01/13 07:45:30;;;;;;;22.23;4.30;;;;;;;6.58;100.00;99596.22;5052861;28;20036;-66
2023/01/13 07:47:56;;;;;;;15.00;4.07;;;;;;;6.58;100.00;99608.41;5053062;28;20128;-66
2023/01/13 07:50:22;;;;;;;13.27;4.32;;;;;;;6.56;100.00;99599.78;5034478;28;20021;-66
2023/01/13 07:52:48;;;;;;;13.02;4.35;;;;;;;6.54;100.00;99599.03;5052833;28;20020;-65
2023/01/13 07:55:14;;;;;;;18.45;4.97;;;;;;;6.56;100.00;99599.78;5052396;28;20047;-66
2023/01/13 07:57:39;;;;;;;15.15;4.65;;;;;;;6.61;100.00;99608.28;5028696;28;20134;-66
2023/01/13 08:00:05;;;;;;;19.08;4.22;;;;;;;6.63;100.00;99609.03;5052046;28;20144;-66
2023/01/13 08:02:31;;;;;;;15.65;3.83;;;;;;;6.68;100.00;99625.34;5052713;28;20174;-66
2023/01/13 08:04:56;;;;;;;14.13;5.10;;;;;;;6.67;100.00;99607.97;5052429;28;20120;-66
2023/01/13 08:07:22;;;;;;;14.60;4.60;;;;;;;6.68;100.00;99613.13;5048451;28;20080;-66
2023/01/13 08:09:47;;;;;;;8.90;3.78;;;;;;;6.84;100.00;99626.31;5052440;28;20158;-66
2023/01/13 08:14:56;;;;;;;16.67;5.38;;;;;;;6.99;100.00;99625.59;5052521;28;20179;-66
2023/01/13 08:17:22;;;;;;;20.15;4.47;;;;;;;6.98;100.00;99623.88;5038169;28;20022;-66
2023/01/13 08:19:47;;;;;;;18.83;4.78;;;;;;;6.94;100.00;99631.94;5048201;28;20047;-65
2023/01/13 08:22:13;;;;;;;13.85;4.45;;;;;;;6.88;100.00;99622.63;5052372;28;20025;-65
2023/01/13 08:24:38;;;;;;;17.38;4.68;;;;;;;7.01;100.00;99647.25;5049900;28;20590;-65
2023/01/13 08:27:04;;;;;;;14.85;4.95;;;;;;;7.02;100.00;99651.56;5052198;28;20041;-65
2023/01/13 08:29:29;;;;;;;17.30;4.43;;;;;;;6.92;100.00;99634.63;5051627;28;20118;-66
2023/01/13 08:31:54;;;;;;;11.57;3.67;;;;;;;6.86;100.00;99634.91;5052248;28;20028;-66
2023/01/13 08:34:20;;;;;;;17.55;4.63;;;;;;;7.00;100.00;99652.53;5051580;28;20025;-66
2023/01/13 08:36:48;;;;;;;12.40;4.45;;;;;;;6.97;100.00;99648.31;5051043;28;20032;-66
2023/01/13 08:39:13;;;;;;;14.93;4.97;;;;;;;6.94;100.00;99645.00;5051752;28;20021;-66
2023/01/13 08:41:54;;;;;;;18.15;5.63;;;;;;;7.03;100.00;99649.78;5055051;28;20024;-66
2023/01/13 08:44:19;;;;;;;23.10;4.55;;;;;;;7.02;100.00;99643.72;5056309;28;20028;-66
2023/01/13 08:46:45;;;;;;;17.88;4.60;;;;;;;6.74;100.00;99591.09;5038619;28;20091;-66
2023/01/13 08:49:10;;;;;;;11.45;4.78;;;;;;;7.02;100.00;99648.09;5056189;28;20104;-66
2023/01/13 08:51:36;;;;;;;11.05;4.38;;;;;;;6.89;100.00;99629.56;5055718;28;20146;-65
2023/01/13 08:54:02;;;;;;;13.35;5.40;;;;;;;7.21;100.00;99664.56;5051112;28;20032;-66
2023/01/13 08:56:30;;;;;;;24.38;5.05;;;;;;;7.33;100.00;99670.97;5027196;28;20065;-65
2023/01/13 08:58:59;;;;;;;14.05;4.45;;;;;;;7.51;100.00;99675.28;5036767;28;20025;-65
2023/01/13 09:01:25;;;;;;;29.17;5.30;;;;;;;7.05;100.00;99604.41;5056036;28;20047;-65
2023/01/13 09:03:51;;;;;;;14.77;4.70;;;;;;;7.56;100.00;99668.09;5055662;28;20480;-66
2023/01/13 09:06:16;;;;;;;13.43;4.70;;;;;;;7.58;100.00;99655.75;5029332;28;20021;-66
2023/01/13 09:08:42;;;;;;;28.30;6.28;;;;;;;7.64;100.00;99681.59;5039394;28;20029;-65
2023/01/13 09:14:02;;;;;;;20.27;5.20;;;;;;;7.70;100.00;99681.31;5029025;28;20120;-66
2023/01/13 09:16:28;;;;;;;14.98;4.63;;;;;;;7.65;100.00;99672.84;5055400;28;20112;-66
2023/01/13 09:18:53;;;;;;;15.02;4.15;;;;;;;7.61;100.00;99645.16;5055262;28;20068;-66
2023/01/13 09:21:19;;;;;;;15.80;4.45;;;;;;;7.67;100.00;99665.78;5055984;28;20060;-65
2023/01/13 09:23:45;;;;;;;17.52;4.50;;;;;;;7.68;100.00;99668.31;5055387;28;20032;-66
2023/01/13 09:26:19;;;;;;;18.27;5.43;;;;;;;7.53;100.00;99642.09;5037877;28;20475;-66
2023/01/13 09:28:45;;;;;;;;;;;;;;;7.76;100.00;99675.78;5026517;28;20047;-66
2023/01/13 09:31:10;;;;;;;18.70;5.40;;;;;;;7.75;100.00;99678.44;5037154;28;19968;-66
2023/01/13 09:36:19;;;;;;;15.17;4.27;;;;;;;7.79;100.00;99693.06;5040188;28;20044;-66
2023/01/13 09:38:45;;;;;;;20.98;5.05;;;;;;;7.80;100.00;99695.63;5037735;28;20355;-66
2023/01/13 09:44:08;;;;;;;16.05;5.13;;;;;;;8.03;100.00;99689.22;5040573;28;20207;-66
2023/01/13 09:46:42;;;;;;;13.27;4.57;;;;;;;7.85;100.00;99664.84;5037374;28;20025;-66
2023/01/13 09:49:28;;;;;;;13.20;3.92;;;;;;;8.06;100.00;99700.38;5036789;28;20104;-66
2023/01/13 09:51:57;;;;;;;13.73;4.47;;;;;;;8.03;100.00;99669.13;5054543;28;20109;-66
2023/01/13 09:54:54;;;;;;;11.40;4.35;;;;;;;8.28;100.00;99694.03;5037175;28;20112;-66
2023/01/13 09:57:20;;;;;;;20.80;5.07;;;;;;;8.30;100.00;99698.28;5036917;28;20057;-66
2023/01/13 09:59:46;;;;;;;24.98;5.18;;;;;;;8.20;100.00;99684.81;5055117;28;20071;-66
2023/01/13 10:02:31;;;;;;;20.48;5.03;;;;;;;8.29;100.00;99711.44;5054995;28;20017;-66
2023/01/13 10:05:31;;;;;;;19.13;5.63;;;;;;;8.31;100.00;99700.00;5054896;28;20074;-66
2023/01/13 10:08:00;;;;;;;12.05;4.53;;;;;;;8.04;100.00;99644.66;5036851;28;20124;-66
2023/01/13 10:10:47;;;;;;;19.60;5.47;;;;;;;8.42;100.00;99691.56;5021844;28;20029;-66
2023/01/13 10:13:32;;;;;;;25.73;5.95;;;;;;;8.37;100.00;99701.44;5054656;28;20256;-66
2023/01/13 10:16:09;;;;;;;14.63;5.28;;;;;;;8.41;100.00;99700.34;5036619;28;20097;-66
2023/01/13 10:18:59;;;;;;;26.60;5.50;;;;;;;8.44;100.00;99705.44;5038539;28;20029;-66
2023/01/13 10:22:00;;;;;;;14.07;5.05;;;;;;;8.51;100.00;99709.41;5036582;28;20468;-66
2023/01/13 10:24:49;;;;;;;14.85;5.10;;;;;;;8.56;100.00;99730.94;5013636;28;20099;-66
2023/01/13 10:27:28;;;;;;;14.77;5.43;;;;;;;8.59;100.00;99728.16;5054430;28;20423;-66
2023/01/13 10:29:54;;;;;;;19.70;5.65;;;;;;;8.64;100.00;99724.41;5036001;28;20111;-66
2023/01/13 10:32:19;;;;;;;17.02;5.55;;;;;;;8.60;100.00;99711.53;5054538;28;20111;-66
2023/01/13 10:34:50;;;;;;;25.40;5.50;;;;;;;8.63;100.00;99717.47;5054254;28;20043;-66
2023/01/13 10:37:25;;;;;;;15.55;5.45;;;;;;;8.52;100.00;99722.41;5054067;28;20472;-67
2023/01/13 10:39:53;;;;;;;12.75;4.32;;;;;;;8.56;100.00;99716.09;5053874;28;20021;-66
2023/01/13 10:42:21;;;;;;;16.15;5.13;;;;;;;8.59;100.00;99713.31;5053894;28;20036;-67
2023/01/13 10:44:52;;;;;;;22.00;5.30;;;;;;;8.56;100.00;99728.34;5054459;28;20032;-66
2023/01/13 10:47:33;;;;;;;36.60;5.47;;;;;;;8.53;100.00;99726.72;5069361;28;20499;-67
2023/01/13 10:50:11;;;;;;;19.65;5.78;;;;;;;8.57;100.00;99741.34;5044654;28;20124;-66
2023/01/13 10:52:42;;;;;;;12.65;4.82;;;;;;;8.58;100.00;99736.97;5053634;28;20040;-66
2023/01/13 10:55:32;;;;;;;13.52;5.05;;;;;;;8.58;100.00;99734.34;5035387;28;20356;-66
2023/01/13 10:58:17;;;;;;;12.68;4.78;;;;;;;8.61;100.00;99734.19;5047671;28;20046;-66
2023/01/13 11:00:42;;;;;;;17.52;5.80;;;;;;;8.62;100.00;99741.94;5052362;28;20028;-67
2023/01/13 11:03:20;;;;;;;14.25;5.63;;;;;;;8.46;100.00;99691.31;5051390;28;20112;-66
2023/01/13 11:05:55;;;;;;;19.63;5.60;;;;;;;8.65;100.00;99722.63;5018076;28;20030;-66
2023/01/13 11:08:24;;;;;;;13.63;4.35;;;;;;;8.65;100.00;99741.78;5057505;28;20436;-66
2023/01/13 11:10:55;;;;;;;15.77;5.07;;;;;;;8.62;100.00;99722.75;5047732;28;20036;-67
2023/01/13 11:13:27;;;;;;;21.00;6.13;;;;;;;8.75;100.00;99738.69;5047537;28;20526;-66
2023/01/13 11:16:06;;;;;;;20.73;4.95;;;;;;;8.75;100.00;99742.16;5052633;28;20135;-66
2023/01/13 11:19:10;;;;;;;13.02;4.50;;;;;;;8.79;100.00;99732.38;5032850;28;20025;-66
2023/01/13 11:22:02;;;;;;;15.30;5.82;;;;;;;8.90;100.00;99746.56;5036848;28;20468;-66
2023/01/13 11:24:36;;;;;;;13.77;5.43;;;;;;;8.84;100.00;99751.28;5036253;28;20047;-67
2023/01/13 11:27:15;;;;;;;;;;;;;;;8.77;100.00;99756.00;5052975;28;20482;-66
2023/01/13 11:29:56;;;;;;;24.60;5.78;;;;;;;8.70;100.00;99762.50;5050981;28;20374;-66
2023/01/13 11:32:23;;;;;;;15.30;5.03;;;;;;;8.55;100.00;99740.56;5024783;28;20033;-66
2023/01/13 11:34:53;;;;;;;15.23;4.88;;;;;;;8.64;100.00;99744.50;5034310;28;20043;-67
2023/01/13 11:37:30;;;;;;;22.30;5.53;;;;;;;8.64;100.00;99754.97;5034556;28;20087;-67
2023/01/13 11:40:05;;;;;;;12.20;4.10;;;;;;;8.55;100.00;99761.53;5052798;28;20479;-66
2023/01/13 11:42:47;;;;;;;15.10;5.38;;;;;;;8.47;100.00;99755.00;5051908;28;20048;-67
2023/01/13 11:45:34;;;;;;;16.38;5.20;;;;;;;8.41;100.00;99758.81;5052778;28;20033;-66
2023/01/13 11:48:00;;;;;;;13.80;4.57;;;;;;;8.35;100.00;99750.41;5051819;28;20020;-66
2023/01/13 11:50:35;;;;;;;11.98;4.40;;;;;;;8.29;100.00;99763.78;5051898;28;20025;-66
2023/01/13 11:53:09;;;;;;;26.45;4.72;;;;;;;8.14;100.00;99775.88;5051195;28;20100;-67
2023/01/13 11:55:38;;;;;;;;;;;;;;;8.07;100.00;99769.25;5022559;28;20387;-66
2023/01/13 11:58:21;;;;;;;19.13;4.85;;;;;;;8.05;100.00;99771.94;5063100;28;19920;-66
2023/01/13 12:00:58;;;;;;;18.60;5.18;;;;;;;8.01;100.00;99786.06;5048205;28;20043;-66
2023/01/13 12:03:36;;;;;;;14.73;5.25;;;;;;;7.88;100.00;99763.22;5050221;28;20033;-66
2023/01/13 12:06:20;;;;;;;20.90;5.82;;;;;;;7.88;100.00;99774.53;5039951;28;20033;-67
2023/01/13 12:08:51;;;;;;;13.53;5.00;;;;;;;7.93;100.00;99774.31;5046890;28;20033;-67
2023/01/13 12:12:18;;;;;;;19.58;5.68;;;;;;;8.04;100.00;99787.72;5049293;28;20818;-66
2023/01/13 12:14:52;;;;;;;12.38;4.55;;;;;;;8.15;100.00;99790.63;5025842;28;20492;-66
2023/01/13 12:17:46;;;;;;;13.05;4.78;;;;;;;8.21;100.00;99790.34;5027681;28;20127;-66
2023/01/13 12:20:36;;;;;;;17.15;5.28;;;;;;;8.21;100.00;99788.53;5015916;28;20048;-66
2023/01/13 12:23:09;;;;;;;15.80;4.95;;;;;;;8.07;100.00;99759.63;5050865;28;20112;-67
2023/01/13 12:25:46;;;;;;;18.10;4.30;;;;;;;8.28;100.00;99788.25;5050390;28;20076;-66